KHWO/HWO METAR and TAF weather

Enter ICAO airport designator
Station Type Date Time Source
KHWO METAR 2022/12/05 13:53 UTC NOAA

KHWO 051353Z 34007KT 10SM CLR 23/17 A3010 RMK AO2 SLP194 T02280167 PNO $


Station Type Date Time Source
KHWO Decoded METAR 2022/12/05 13:53 UTC NOAA

HOLLYWOOD NORTH PERRY AIRPORT , FL, United States (KHWO) 26-00N 080-14W 2M
Dec 05, 2022 - 08:53 AM EST / 2022.12.05 1353 UTC
Wind: from the NNW (340 degrees) at 8 MPH (7 KT):0
Visibility: 10 mile(s):0
Sky conditions: clear
Temperature: 73.0 F (22.8 C)
Dew Point: 62.1 F (16.7 C)
Relative Humidity: 68%
Pressure (altimeter): 30.1 in. Hg (1019 hPa)
ob: KHWO 051353Z 34007KT 10SM CLR 23/17 A3010 RMK AO2 SLP194 T02280167 PNO
cycle: 14

Station Type Date Time Source
KHWO TAF 2020/02/03 18:20 UTC NOAA

TAF KHWO 031720Z 0318/0418 12005KT P6SM SKC
FM040000 VRB03KT P6SM SKC
FM041500 14010KT P6SM FEW030

Example: see airport list